To NAV CANADA Home Page Login to a new session Search on AWWS site Feedback and Comments Disclaimer Vers la page française équivalente Tips FAQ What's new on the site To the Forecasts and Observations / NOTAM section To "File a Flight Plan" website Publications and other links Update of the User's profile FIC Telephone Numbers My Weather Data Folder Route Weather Data Regional Weather Data Local Weather Data To the Forecasts and Observations / NOTAM section
Request Generated 05/30/2016 at 04:50:19 UTC . Weather information available at that time is displayed.

METAR/TAF

TRENTON/ON    

METAR CYTR 300400Z 22006KT 15SM SCT035 BKN120 21/17 A2993 RMK SC3AC2 SLP135=
METAR CYTR 300300Z 21009G15KT 15SM BKN120 BKN180 BKN250 22/17 A2993 RMK AC5AC2CI1 FRQ LTNG DIST N SLP136=
METAR CYTR 300200Z 25004KT 15SM BKN120 BKN180 BKN250 22/17 A2994 RMK AC5AC2CI1 SLP138=

TAF CYTR 292330Z 3000/3024 22005KT P6SM SCT040 BKN250
FM300800 VRB03KT P6SM SCT025 BKN050 TEMPO 3008/3012 P6SM -SHRA
FM301200 22010KT P6SM FEW025 SCT050
FM301700 22012KT P6SM BKN050
BECMG 3021/3023 FEW050
RMK NXT FCST BY 300600Z=
Your time UTC time
Weather data provided by Environment Canada and NAV CANADA